Time;durP1;ratioP1;P1;durP2;ratioP2;P2;SDS_P1;SDS_P2;PMS_P1;PMS_P2;Temp;Humidity;BMP_temperature;BMP_pressure;BME280_temperature;BME280_humidity;BME280_pressure;Samples;Min_cycle;Max_cycle;Signal;HPM_P1;HPM_P2
2023/02/07 00:00:03;;;;;;;10.30;4.13;;;;;;;;;;5093124;28;20067;-66
2023/02/07 00:02:42;;;;;;;6.57;4.27;;;;;;;;;;5116132;28;20041;-65
2023/02/07 00:05:08;;;;;;;6.20;3.97;;;;;;;;;;5064116;28;20070;-65
2023/02/07 00:07:33;;;;;;;6.87;3.90;;;;;;;;;;5080778;28;20059;-65
2023/02/07 00:09:59;;;;;;;7.37;4.27;;;;;;;;;;5081431;28;20035;-65
2023/02/07 00:12:25;;;;;;;7.53;4.73;;;;;;;;;;5080321;28;20110;-65
2023/02/07 00:14:50;;;;;;;6.53;4.00;;;;;;;;;;5080702;28;20059;-66
2023/02/07 00:17:16;;;;;;;7.33;4.40;;;;;;;;;;5080657;28;20518;-65
2023/02/07 00:19:41;;;;;;;6.57;4.30;;;;;;;;;;5080831;28;20477;-65
2023/02/07 00:22:07;;;;;;;5.97;3.77;;;;;;;;;;5080820;28;20031;-66
2023/02/07 00:24:33;;;;;;;5.87;3.87;;;;;;;;;;5080746;28;20024;-65
2023/02/07 00:26:58;;;;;;;7.13;3.93;;;;;;;;;;5080526;28;20457;-65
2023/02/07 00:29:24;;;;;;;6.07;3.87;;;;;;;;;;5080502;28;20046;-66
2023/02/07 00:31:50;;;;;;;7.10;3.67;;;;;;;;;;5080583;28;20138;-65
2023/02/07 00:34:16;;;;;;;9.00;4.43;;;;;;;;;;5080441;28;20122;-65
2023/02/07 00:36:41;;;;;;;7.13;3.93;;;;;;;;;;5080405;28;20430;-66
2023/02/07 00:39:10;;;;;;;6.33;4.10;;;;;;;;;;5079799;28;20100;-66
2023/02/07 00:41:36;;;;;;;6.37;4.33;;;;;;;;;;5097031;28;20044;-65
2023/02/07 00:44:02;;;;;;;7.60;4.17;;;;;;;;;;5080294;28;20454;-66
2023/02/07 00:46:28;;;;;;;6.43;4.77;;;;;;;;;;5079983;28;20100;-65
2023/02/07 00:48:54;;;;;;;6.73;4.30;;;;;;;;;;5079962;28;20027;-66
2023/02/07 00:51:19;;;;;;;8.80;4.70;;;;;;;;;;5063649;28;20032;-66
2023/02/07 00:53:47;;;;;;;7.47;3.87;;;;;;;;;;5080467;28;20054;-66
2023/02/07 00:56:13;;;;;;;7.83;4.60;;;;;;;;;;5080019;28;20080;-66
2023/02/07 00:58:38;;;;;;;8.00;4.30;;;;;;;;;;5063220;28;20133;-66
2023/02/07 01:01:05;;;;;;;8.10;4.30;;;;;;;;;;5079776;28;20134;-66
2023/02/07 01:03:31;;;;;;;6.30;4.50;;;;;;;;;;5080078;28;20448;-66
2023/02/07 01:05:57;;;;;;;6.60;4.27;;;;;;;;;;5063128;28;20076;-65
2023/02/07 01:08:24;;;;;;;6.77;3.93;;;;;;;;;;5093584;28;20031;-65
2023/02/07 01:10:50;;;;;;;6.60;4.53;;;;;;;;;;5079600;28;20031;-66
2023/02/07 01:13:16;;;;;;;7.67;4.70;;;;;;;;;;5061946;28;20078;-65
2023/02/07 01:15:43;;;;;;;8.53;3.83;;;;;;;;;;5062822;28;20485;-66
2023/02/07 01:18:08;;;;;;;7.13;4.40;;;;;;;;;;5062525;28;20115;-67
2023/02/07 01:20:34;;;;;;;6.67;3.80;;;;;;;;;;5062516;28;20552;-65
2023/02/07 01:23:02;;;;;;;6.77;4.33;;;;;;;;;;5062720;28;20051;-65
2023/02/07 01:25:28;;;;;;;6.37;3.93;;;;;;;;;;5062398;28;20043;-65
2023/02/07 01:27:54;;;;;;;7.27;4.27;;;;;;;;;;5062502;28;20034;-66
2023/02/07 01:30:19;;;;;;;6.50;4.13;;;;;;;;;;5062170;28;20124;-66
2023/02/07 01:32:45;;;;;;;7.23;4.50;;;;;;;;;;5061495;28;20027;-66
2023/02/07 01:35:10;;;;;;;6.13;4.10;;;;;;;;;;5061675;28;20036;-65
2023/02/07 01:37:36;;;;;;;8.60;4.33;;;;;;;;;;5078412;28;20046;-65
2023/02/07 01:40:02;;;;;;;5.07;3.83;;;;;;;;;;5061977;28;20058;-66
2023/02/07 01:42:28;;;;;;;6.00;4.27;;;;;;;;;;5096336;28;20042;-65
2023/02/07 01:44:59;;;;;;;7.10;4.07;;;;;;;;;;5079174;28;20100;-66
2023/02/07 01:47:25;;;;;;;5.75;3.90;;;;;;;;;;5062448;28;20039;-65
2023/02/07 01:49:53;;;;;;;8.00;3.53;;;;;;;;;;5062216;28;20032;-66
2023/02/07 01:52:22;;;;;;;7.67;3.67;;;;;;;;;;5072745;28;20446;-66
2023/02/07 01:54:49;;;;;;;6.80;3.93;;;;;;;;;;5079226;28;20039;-69
2023/02/07 01:57:18;;;;;;;5.10;3.53;;;;;;;;;;5078462;28;20047;-66
2023/02/07 01:59:44;;;;;;;6.30;4.23;;;;;;;;;;5079322;28;20044;-66
2023/02/07 02:02:13;;;;;;;6.60;3.97;;;;;;;;;;5061878;28;20039;-66
2023/02/07 02:04:39;;;;;;;6.17;4.20;;;;;;;;;;5061651;28;20196;-66
2023/02/07 02:07:06;;;;;;;6.57;3.93;;;;;;;;;;5078268;28;20188;-67
2023/02/07 02:09:32;;;;;;;6.77;4.30;;;;;;;;;;5078349;28;20519;-66
2023/02/07 02:12:01;;;;;;;5.77;4.03;;;;;;;;;;5060906;28;20040;-66
2023/02/07 02:14:33;;;;;;;6.10;4.07;;;;;;;;;;5086156;27;20064;-66
2023/02/07 02:17:21;;;;;;;5.20;3.80;;;;;;;;;;5103898;27;20051;-67
2023/02/07 02:20:02;;;;;;;6.00;4.17;;;;;;;;;;5098838;27;20134;-66
2023/02/07 02:22:38;;;;;;;7.70;4.47;;;;;;;;;;5081519;27;20035;-66
2023/02/07 02:25:22;;;;;;;8.23;4.10;;;;;;;;;;5097582;27;20035;-67
2023/02/07 02:27:50;;;;;;;9.53;4.00;;;;;;;;;;5098682;27;20064;-66
2023/02/07 02:30:35;;;;;;;6.77;4.10;;;;;;;;;;5115401;27;20134;-66
2023/02/07 02:33:00;;;;;;;6.30;4.17;;;;;;;;;;5098103;27;20376;-65
2023/02/07 02:35:43;;;;;;;11.23;4.73;;;;;;;;;;5114839;27;20131;-65
2023/02/07 02:38:28;;;;;;;7.37;4.50;;;;;;;;;;5097657;27;20039;-66
2023/02/07 02:40:53;;;;;;;6.73;4.10;;;;;;;;;;5114787;27;20119;-66
2023/02/07 02:43:29;;;;;;;7.53;4.23;;;;;;;;;;5097586;27;20473;-66
2023/02/07 02:46:02;;;;;;;7.83;4.40;;;;;;;;;;5081041;27;20055;-66
2023/02/07 02:48:28;;;;;;;5.53;4.03;;;;;;;;;;5080801;27;20031;-65
2023/02/07 02:50:54;;;;;;;6.20;4.30;;;;;;;;;;5114635;27;20038;-66
2023/02/07 02:53:20;;;;;;;8.53;4.80;;;;;;;;;;5097714;27;20354;-66
2023/02/07 02:56:04;;;;;;;7.60;4.50;;;;;;;;;;5098042;27;20031;-65
2023/02/07 02:58:32;;;;;;;9.73;4.47;;;;;;;;;;5097847;27;20404;-66
2023/02/07 03:01:22;;;;;;;7.60;4.70;;;;;;;;;;5114284;27;20039;-65
2023/02/07 03:04:13;;;;;;;7.40;4.50;;;;;;;;;;5097713;27;20440;-68
2023/02/07 03:06:45;;;;;;;7.70;4.22;;;;;;;;;;5080769;27;20449;-66
2023/02/07 03:09:20;;;;;;;7.23;4.00;;;;;;;;;;5097043;27;20153;-66
2023/02/07 03:11:58;;;;;;;13.97;5.07;;;;;;;;;;5096915;27;20102;-65
2023/02/07 03:14:26;;;;;;;8.17;4.50;;;;;;;;;;5080056;27;20027;-66
2023/02/07 03:16:57;;;;;;;7.03;4.70;;;;;;;;;;5096888;27;20107;-65
2023/02/07 03:19:23;;;;;;;7.60;4.50;;;;;;;;;;5114165;27;20043;-66
2023/02/07 03:21:51;;;;;;;8.47;5.30;;;;;;;;;;5096968;27;20129;-68
2023/02/07 03:24:21;;;;;;;11.40;4.82;;;;;;;;;;5097434;27;20485;-67
2023/02/07 03:26:48;;;;;;;7.30;4.73;;;;;;;;;;5097622;27;20042;-65
2023/02/07 03:29:16;;;;;;;8.17;4.60;;;;;;;;;;5097377;27;20473;-65
2023/02/07 03:31:43;;;;;;;10.23;5.20;;;;;;;;;;5097114;27;20035;-65
2023/02/07 03:34:15;;;;;;;8.23;4.77;;;;;;;;;;5079739;27;20477;-66
2023/02/07 03:36:45;;;;;;;9.33;5.03;;;;;;;;;;5080022;27;20035;-66
2023/02/07 03:39:10;;;;;;;9.93;5.03;;;;;;;;;;5096469;27;20039;-66
2023/02/07 03:41:48;;;;;;;9.57;4.70;;;;;;;;;;5080042;27;20023;-66
2023/02/07 03:44:14;;;;;;;9.37;5.20;;;;;;;;;;5114175;27;20039;-66
2023/02/07 03:46:39;;;;;;;9.33;4.73;;;;;;;;;;5079905;27;20031;-66
2023/02/07 03:49:06;;;;;;;8.00;4.83;;;;;;;;;;5096364;28;20099;-67
2023/02/07 03:51:33;;;;;;;9.70;5.07;;;;;;;;;;5079190;28;20465;-66
2023/02/07 03:53:58;;;;;;;10.20;5.60;;;;;;;;;;5076349;28;20148;-66
2023/02/07 03:56:24;;;;;;;11.00;4.87;;;;;;;;;;5076757;28;20150;-66
2023/02/07 03:58:49;;;;;;;9.60;4.67;;;;;;;;;;5076591;28;20134;-68
2023/02/07 04:01:15;;;;;;;10.07;5.37;;;;;;;;;;5076172;28;20042;-65
2023/02/07 04:03:40;;;;;;;6.73;4.47;;;;;;;;;;5076174;28;20100;-66
2023/02/07 04:06:08;;;;;;;10.00;4.50;;;;;;;;;;5075721;28;20027;-67
2023/02/07 04:08:34;;;;;;;8.80;5.20;;;;;;;;;;5076094;28;20042;-65
2023/02/07 04:11:00;;;;;;;9.53;5.40;;;;;;;;;;5075879;28;20024;-67
2023/02/07 04:13:26;;;;;;;9.50;5.00;;;;;;;;;;5092474;28;20040;-65
2023/02/07 04:15:52;;;;;;;8.27;5.00;;;;;;;;;;5075864;28;20047;-66
2023/02/07 04:18:17;;;;;;;9.23;4.53;;;;;;;;;;5076279;28;20036;-65
2023/02/07 04:20:43;;;;;;;8.60;4.90;;;;;;;;;;5076633;28;20035;-66
2023/02/07 04:23:08;;;;;;;10.60;5.30;;;;;;;;;;5076802;28;20042;-66
2023/02/07 04:25:41;;;;;;;7.13;4.63;;;;;;;;;;5094307;28;20040;-67
2023/02/07 04:28:07;;;;;;;11.17;4.93;;;;;;;;;;5075726;28;20481;-66
2023/02/07 04:30:33;;;;;;;9.23;5.23;;;;;;;;;;5092725;28;20058;-66
2023/02/07 04:32:58;;;;;;;9.00;5.50;;;;;;;;;;5075554;28;20504;-66
2023/02/07 04:35:24;;;;;;;7.77;4.50;;;;;;;;;;5075561;28;20413;-67
2023/02/07 04:37:50;;;;;;;14.80;5.03;;;;;;;;;;5095228;28;20496;-67
2023/02/07 04:40:15;;;;;;;8.57;4.90;;;;;;;;;;5095920;28;20069;-66
2023/02/07 04:42:41;;;;;;;9.17;5.10;;;;;;;;;;5112927;28;20042;-67
2023/02/07 04:45:07;;;;;;;9.87;5.37;;;;;;;;;;5094528;28;20031;-67
2023/02/07 04:47:32;;;;;;;7.17;4.73;;;;;;;;;;5096091;27;20027;-67
2023/02/07 04:49:58;;;;;;;7.00;4.67;;;;;;;;;;5097785;27;20081;-67
2023/02/07 04:52:24;;;;;;;7.33;4.80;;;;;;;;;;5098059;27;20031;-67
2023/02/07 04:54:50;;;;;;;11.43;4.97;;;;;;;;;;5097743;27;20485;-67
2023/02/07 04:57:15;;;;;;;9.00;4.60;;;;;;;;;;5083068;27;20038;-67
2023/02/07 04:59:41;;;;;;;12.07;5.10;;;;;;;;;;5100142;27;20031;-67
2023/02/07 05:02:06;;;;;;;9.57;5.43;;;;;;;;;;5117151;27;20035;-67
2023/02/07 05:04:32;;;;;;;13.53;5.37;;;;;;;;;;5117113;27;20425;-67
2023/02/07 05:06:57;;;;;;;10.70;5.37;;;;;;;;;;5100102;27;20035;-67
2023/02/07 05:09:23;;;;;;;15.43;5.47;;;;;;;;;;5116782;27;20035;-66
2023/02/07 05:11:48;;;;;;;8.63;5.10;;;;;;;;;;5099195;27;20066;-68
2023/02/07 05:14:14;;;;;;;10.97;5.13;;;;;;;;;;5116774;27;20035;-66
2023/02/07 05:16:40;;;;;;;9.27;5.10;;;;;;;;;;5116788;27;20488;-67
2023/02/07 05:19:06;;;;;;;9.00;5.00;;;;;;;;;;5099575;27;20043;-67
2023/02/07 05:21:31;;;;;;;8.40;4.90;;;;;;;;;;5082973;27;20035;-66
2023/02/07 05:23:57;;;;;;;9.77;5.50;;;;;;;;;;5099630;27;20118;-67
2023/02/07 05:26:22;;;;;;;8.77;5.13;;;;;;;;;;5099661;27;20039;-66
2023/02/07 05:28:48;;;;;;;7.77;4.87;;;;;;;;;;5099948;27;20030;-67
2023/02/07 05:31:14;;;;;;;10.73;5.03;;;;;;;;;;5099850;27;20035;-66
2023/02/07 05:33:39;;;;;;;7.67;4.97;;;;;;;;;;5099037;27;20058;-67
2023/02/07 05:36:05;;;;;;;8.47;4.60;;;;;;;;;;5097888;27;20042;-67
2023/02/07 05:38:30;;;;;;;10.67;4.93;;;;;;;;;;5097444;27;20042;-68
2023/02/07 05:40:56;;;;;;;7.83;4.40;;;;;;;;;;5098254;27;20046;-68
2023/02/07 05:43:22;;;;;;;9.27;5.10;;;;;;;;;;5098004;27;20027;-66
2023/02/07 05:45:48;;;;;;;10.53;5.27;;;;;;;;;;5080832;27;20422;-66
2023/02/07 05:48:13;;;;;;;13.90;5.43;;;;;;;;;;5092332;27;20039;-65
2023/02/07 05:50:39;;;;;;;9.73;4.80;;;;;;;;;;5097329;27;20035;-66
2023/02/07 05:53:05;;;;;;;9.17;4.90;;;;;;;;;;5076770;27;20027;-66
2023/02/07 05:55:31;;;;;;;10.07;5.03;;;;;;;;;;5089145;27;20031;-65
2023/02/07 05:57:57;;;;;;;12.80;5.47;;;;;;;;;;5078435;27;20039;-66
2023/02/07 06:00:22;;;;;;;9.53;4.70;;;;;;;;;;5132542;27;20035;-65
2023/02/07 06:02:48;;;;;;;8.33;5.10;;;;;;;;;;5080334;27;20039;-66
2023/02/07 06:05:15;;;;;;;11.23;5.00;;;;;;;;;;5091792;27;20023;-65
2023/02/07 06:07:41;;;;;;;12.03;5.77;;;;;;;;;;5114883;27;20151;-65
2023/02/07 06:10:07;;;;;;;15.97;5.93;;;;;;;;;;5097441;27;20556;-66
2023/02/07 06:12:33;;;;;;;10.70;5.87;;;;;;;;;;5097301;27;20026;-65
2023/02/07 06:14:58;;;;;;;13.40;6.10;;;;;;;;;;5097311;27;20070;-66
2023/02/07 06:17:24;;;;;;;10.23;5.23;;;;;;;;;;5096879;27;20039;-66
2023/02/07 06:19:50;;;;;;;8.47;5.07;;;;;;;;;;5097497;27;20031;-66
2023/02/07 06:22:15;;;;;;;11.80;5.13;;;;;;;;;;5115508;27;20510;-66
2023/02/07 06:24:41;;;;;;;12.93;6.37;;;;;;;;;;5098666;27;20532;-66
2023/02/07 06:27:06;;;;;;;11.03;6.00;;;;;;;;;;5081429;27;20047;-66
2023/02/07 06:29:32;;;;;;;16.07;5.80;;;;;;;;;;5080991;27;20369;-66
2023/02/07 06:31:58;;;;;;;9.40;5.33;;;;;;;;;;5098343;27;20053;-66
2023/02/07 06:34:23;;;;;;;11.10;5.53;;;;;;;;;;5098242;27;20035;-66
2023/02/07 06:36:49;;;;;;;11.70;4.90;;;;;;;;;;5098180;27;20034;-68
2023/02/07 06:39:14;;;;;;;10.43;5.30;;;;;;;;;;5097569;27;20430;-67
2023/02/07 06:41:40;;;;;;;8.40;5.00;;;;;;;;;;5114622;27;20049;-66
2023/02/07 06:44:06;;;;;;;12.67;5.40;;;;;;;;;;5097427;27;20121;-67
2023/02/07 06:46:31;;;;;;;11.17;5.50;;;;;;;;;;5096711;27;20458;-66
2023/02/07 06:48:57;;;;;;;11.27;5.83;;;;;;;;;;5114608;27;20123;-66
2023/02/07 06:51:23;;;;;;;9.77;5.50;;;;;;;;;;5081017;27;20165;-66
2023/02/07 06:53:48;;;;;;;11.13;5.47;;;;;;;;;;5098086;27;20468;-66
2023/02/07 06:56:14;;;;;;;12.50;5.90;;;;;;;;;;5097908;27;20137;-66
2023/02/07 06:58:39;;;;;;;10.43;5.40;;;;;;;;;;5097802;27;20043;-66
2023/02/07 07:01:05;;;;;;;9.37;4.90;;;;;;;;;;5097989;27;20027;-66
2023/02/07 07:03:31;;;;;;;10.50;5.23;;;;;;;;;;5097896;27;20488;-67
2023/02/07 07:05:57;;;;;;;8.37;4.93;;;;;;;;;;5097688;27;20067;-66
2023/02/07 07:08:23;;;;;;;9.27;5.30;;;;;;;;;;5097730;27;20039;-66
2023/02/07 07:10:49;;;;;;;10.03;5.33;;;;;;;;;;5097565;27;20031;-65
2023/02/07 07:13:14;;;;;;;13.40;5.87;;;;;;;;;;5113792;27;20038;-67
2023/02/07 07:15:40;;;;;;;11.07;6.07;;;;;;;;;;5097674;27;20149;-66
2023/02/07 07:18:06;;;;;;;7.93;5.30;;;;;;;;;;5097493;27;20400;-67
2023/02/07 07:20:31;;;;;;;8.53;4.87;;;;;;;;;;5114517;27;20035;-66
2023/02/07 07:22:57;;;;;;;11.03;5.33;;;;;;;;;;5080545;27;20095;-66
2023/02/07 07:25:22;;;;;;;8.87;5.10;;;;;;;;;;5097364;27;20129;-67
2023/02/07 07:27:48;;;;;;;9.47;5.43;;;;;;;;;;5097896;27;20125;-66
2023/02/07 07:30:13;;;;;;;11.77;6.00;;;;;;;;;;5097276;27;20038;-66
2023/02/07 07:32:39;;;;;;;13.63;5.47;;;;;;;;;;5097278;28;20028;-66
2023/02/07 07:35:05;;;;;;;10.43;5.27;;;;;;;;;;5114136;27;20030;-66
2023/02/07 07:37:31;;;;;;;8.53;4.97;;;;;;;;;;5114244;27;20043;-66
2023/02/07 07:39:57;;;;;;;8.53;5.10;;;;;;;;;;5114242;27;20035;-66
2023/02/07 07:42:23;;;;;;;8.33;5.00;;;;;;;;;;5097220;28;20042;-66
2023/02/07 07:44:59;;;;;;;10.07;4.90;;;;;;;;;;5114139;27;20035;-66
2023/02/07 07:47:26;;;;;;;8.37;4.87;;;;;;;;;;5096878;27;20042;-66
2023/02/07 07:49:52;;;;;;;8.33;5.40;;;;;;;;;;5097072;27;20521;-66
2023/02/07 07:52:18;;;;;;;7.23;4.87;;;;;;;;;;5096087;27;20126;-66
2023/02/07 07:54:43;;;;;;;8.00;4.60;;;;;;;;;;5080295;27;20035;-66
2023/02/07 07:57:09;;;;;;;7.10;4.77;;;;;;;;;;5080066;28;20031;-66
2023/02/07 07:59:34;;;;;;;8.40;4.63;;;;;;;;;;5080247;28;20062;-66
2023/02/07 08:02:00;;;;;;;17.77;5.37;;;;;;;;;;5096788;28;20035;-66
2023/02/07 08:04:26;;;;;;;7.63;4.27;;;;;;;;;;5096978;28;20035;-66
2023/02/07 08:06:51;;;;;;;7.63;4.37;;;;;;;;;;5076101;28;20027;-66
2023/02/07 08:09:17;;;;;;;8.13;4.47;;;;;;;;;;5076806;28;20040;-65
2023/02/07 08:11:42;;;;;;;8.67;5.03;;;;;;;;;;5075800;28;20039;-66
2023/02/07 08:14:08;;;;;;;8.97;4.77;;;;;;;;;;5076570;28;20032;-66
2023/02/07 08:16:34;;;;;;;6.60;4.37;;;;;;;;;;5059823;28;20504;-65
2023/02/07 08:18:59;;;;;;;10.53;4.93;;;;;;;;;;5076742;28;20036;-66
2023/02/07 08:21:25;;;;;;;9.53;4.57;;;;;;;;;;5077143;28;20443;-66
2023/02/07 08:23:52;;;;;;;8.13;4.60;;;;;;;;;;5063853;28;20039;-66
2023/02/07 08:26:17;;;;;;;6.37;4.37;;;;;;;;;;5063816;28;20435;-66
2023/02/07 08:28:43;;;;;;;7.93;4.70;;;;;;;;;;5064110;28;20093;-66
2023/02/07 08:31:08;;;;;;;9.47;5.33;;;;;;;;;;5063514;28;20147;-66
2023/02/07 08:33:34;;;;;;;10.07;4.47;;;;;;;;;;5097549;28;20057;-66
2023/02/07 08:35:59;;;;;;;10.93;4.50;;;;;;;;;;5080342;28;20528;-66
2023/02/07 08:38:25;;;;;;;8.93;4.57;;;;;;;;;;5080165;28;20393;-66
2023/02/07 08:40:51;;;;;;;9.40;4.37;;;;;;;;;;5080408;28;20034;-66
2023/02/07 08:43:16;;;;;;;7.33;4.50;;;;;;;;;;5063598;28;20457;-66
2023/02/07 08:45:45;;;;;;;8.60;4.73;;;;;;;;;;5079990;28;20040;-66
2023/02/07 08:48:11;;;;;;;10.77;4.80;;;;;;;;;;5063399;28;20071;-67
2023/02/07 08:50:36;;;;;;;7.90;4.33;;;;;;;;;;5063513;28;20059;-66
2023/02/07 08:53:02;;;;;;;7.43;4.80;;;;;;;;;;5063222;28;20081;-66
2023/02/07 08:55:29;;;;;;;8.47;4.43;;;;;;;;;;5079677;28;20040;-66
2023/02/07 08:57:55;;;;;;;7.13;4.30;;;;;;;;;;5113874;28;20043;-66
2023/02/07 09:00:20;;;;;;;11.37;4.60;;;;;;;;;;5063360;28;20459;-67
2023/02/07 09:02:46;;;;;;;10.10;5.80;;;;;;;;;;5063542;28;20537;-67
2023/02/07 09:05:11;;;;;;;6.60;4.43;;;;;;;;;;5079498;28;20042;-66
2023/02/07 09:07:37;;;;;;;7.37;4.23;;;;;;;;;;5096620;28;20035;-66
2023/02/07 09:10:05;;;;;;;9.93;4.57;;;;;;;;;;5079623;28;20069;-66
2023/02/07 09:12:31;;;;;;;7.77;4.27;;;;;;;;;;5062265;28;20024;-66
2023/02/07 09:14:59;;;;;;;8.47;4.33;;;;;;;;;;5096730;28;20055;-67
2023/02/07 09:17:25;;;;;;;11.33;4.83;;;;;;;;;;5096621;28;20043;-66
2023/02/07 09:19:50;;;;;;;8.90;4.77;;;;;;;;;;5063052;28;20035;-66
2023/02/07 09:22:17;;;;;;;9.53;5.23;;;;;;;;;;5079549;28;20028;-66
2023/02/07 09:24:42;;;;;;;8.57;4.53;;;;;;;;;;5096160;28;20065;-66
2023/02/07 09:27:08;;;;;;;7.57;4.50;;;;;;;;;;5062881;28;20042;-66
2023/02/07 09:29:34;;;;;;;7.73;4.90;;;;;;;;;;5095920;28;20446;-67
2023/02/07 09:31:59;;;;;;;7.40;4.40;;;;;;;;;;5062344;28;20034;-66
2023/02/07 09:34:26;;;;;;;7.47;4.57;;;;;;;;;;5084011;27;20031;-66
2023/02/07 09:36:52;;;;;;;7.17;4.40;;;;;;;;;;5114849;27;20035;-67
2023/02/07 09:39:17;;;;;;;11.13;4.57;;;;;;;;;;5081139;27;20095;-65
2023/02/07 09:41:55;;;;;;;9.83;4.70;;;;;;;;;;5079766;27;20025;-66
2023/02/07 09:44:45;;;;;;;7.50;4.90;;;;;;;;;;5080990;27;20033;-67
2023/02/07 09:47:17;;;;;;;9.33;4.80;;;;;;;;;;5112963;27;20100;-66
2023/02/07 09:49:42;;;;;;;9.03;5.10;;;;;;;;;;5133049;27;20415;-66
2023/02/07 09:52:13;;;;;;;9.20;5.37;;;;;;;;;;5113533;27;20027;-66
2023/02/07 09:54:43;;;;;;;10.77;5.40;;;;;;;;;;5097133;27;20453;-66
2023/02/07 09:57:16;;;;;;;9.50;4.70;;;;;;;;;;5114635;27;20043;-65
2023/02/07 09:59:58;;;;;;;8.67;5.00;;;;;;;;;;5097840;27;20050;-65
2023/02/07 10:02:26;;;;;;;9.73;4.80;;;;;;;;;;5109139;27;20035;-65
2023/02/07 10:04:54;;;;;;;7.27;4.43;;;;;;;;;;5131575;27;20117;-67
2023/02/07 10:07:19;;;;;;;7.00;4.40;;;;;;;;;;5114762;27;20039;-66
2023/02/07 10:09:45;;;;;;;8.90;4.80;;;;;;;;;;5106392;27;20438;-64
2023/02/07 10:12:29;;;;;;;8.83;4.80;;;;;;;;;;5111595;27;20031;-64
2023/02/07 10:15:05;;;;;;;7.90;5.00;;;;;;;;;;5111785;27;20047;-65
2023/02/07 10:17:31;;;;;;;9.17;4.93;;;;;;;;;;5110769;27;20073;-65
2023/02/07 10:20:06;;;;;;;9.83;4.93;;;;;;;;;;5097225;27;20035;-65
2023/02/07 10:22:40;;;;;;;9.10;4.43;;;;;;;;;;5110562;27;20063;-65
2023/02/07 10:25:11;;;;;;;8.60;4.97;;;;;;;;;;5128780;27;20070;-66
2023/02/07 10:27:43;;;;;;;8.30;4.87;;;;;;;;;;5114409;27;20146;-66
2023/02/07 10:30:24;;;;;;;7.22;4.32;;;;;;;;;;5112255;27;20066;-66
2023/02/07 10:32:50;;;;;;;;;;;;;;;;;;5095986;27;20019;-68
2023/02/07 10:35:36;;;;;;;7.57;4.47;;;;;;;;;;5114070;27;19907;-66
2023/02/07 10:38:02;;;;;;;8.73;4.87;;;;;;;;;;5122347;27;20046;-65
2023/02/07 10:40:33;;;;;;;9.30;5.23;;;;;;;;;;5131878;27;20139;-68
2023/02/07 10:42:58;;;;;;;;;;;;;;;;;;5096764;27;20019;-64
2023/02/07 10:45:24;;;;;;;7.40;4.47;;;;;;;;;;5107564;28;19919;-66
2023/02/07 10:47:50;;;;;;;9.17;5.13;;;;;;;;;;5096890;27;20123;-67
2023/02/07 10:50:17;;;;;;;8.57;4.93;;;;;;;;;;5078827;27;20032;-66
2023/02/07 10:52:48;;;;;;;7.87;4.83;;;;;;;;;;5097427;27;20111;-66
2023/02/07 10:55:19;;;;;;;10.55;5.10;;;;;;;;;;5097724;27;20041;-66
2023/02/07 10:57:54;;;;;;;10.03;4.50;;;;;;;;;;5114540;27;20123;-66
2023/02/07 11:00:20;;;;;;;8.60;4.87;;;;;;;;;;5097837;27;20494;-65
2023/02/07 11:02:50;;;;;;;11.00;4.63;;;;;;;;;;5097307;27;20064;-67
2023/02/07 11:05:16;;;;;;;10.13;5.15;;;;;;;;;;5097013;27;20357;-67
2023/02/07 11:07:58;;;;;;;10.17;5.20;;;;;;;;;;5114130;27;20027;-67
2023/02/07 11:10:25;;;;;;;9.40;5.43;;;;;;;;;;5113816;27;20047;-68
2023/02/07 11:12:56;;;;;;;11.33;5.40;;;;;;;;;;5113711;27;20039;-69
2023/02/07 11:15:27;;;;;;;10.15;5.70;;;;;;;;;;5093626;28;20055;-67
2023/02/07 11:17:54;;;;;;;9.33;5.57;;;;;;;;;;5110326;28;20050;-67
2023/02/07 11:20:24;;;;;;;9.50;5.40;;;;;;;;;;5110651;28;20605;-66
2023/02/07 11:22:51;;;;;;;11.23;5.33;;;;;;;;;;5110904;28;20047;-65
2023/02/07 11:25:17;;;;;;;10.07;5.80;;;;;;;;;;5110642;28;20043;-65
2023/02/07 11:27:43;;;;;;;9.87;5.90;;;;;;;;;;5093392;28;20062;-66
2023/02/07 11:30:17;;;;;;;13.47;6.50;;;;;;;;;;5093576;28;20054;-66
2023/02/07 11:32:44;;;;;;;12.17;6.30;;;;;;;;;;5094053;28;20039;-65
2023/02/07 11:35:17;;;;;;;10.90;5.90;;;;;;;;;;5110562;28;20032;-65
2023/02/07 11:37:56;;;;;;;12.93;6.50;;;;;;;;;;5069925;28;20052;-66
2023/02/07 11:40:42;;;;;;;10.90;5.70;;;;;;;;;;5035691;28;20036;-66
2023/02/07 11:43:08;;;;;;;14.20;6.17;;;;;;;;;;5044096;28;20071;-68
2023/02/07 11:45:34;;;;;;;14.67;5.97;;;;;;;;;;5081316;28;20164;-66
2023/02/07 11:48:00;;;;;;;13.17;6.33;;;;;;;;;;5081771;28;20039;-65
2023/02/07 11:50:32;;;;;;;10.53;5.73;;;;;;;;;;5127000;27;20458;-64
2023/02/07 11:52:58;;;;;;;14.07;6.75;;;;;;;;;;5074023;28;20037;-65
2023/02/07 11:55:35;;;;;;;11.07;6.10;;;;;;;;;;5106994;28;20035;-66
2023/02/07 11:58:06;;;;;;;9.77;5.77;;;;;;;;;;5092793;28;20481;-66
2023/02/07 12:00:33;;;;;;;16.37;7.07;;;;;;;;;;5109859;28;20084;-65
2023/02/07 12:03:00;;;;;;;11.77;6.20;;;;;;;;;;5110391;28;20051;-65
2023/02/07 12:05:28;;;;;;;9.70;5.87;;;;;;;;;;5092566;28;20027;-66
2023/02/07 12:07:57;;;;;;;12.67;6.13;;;;;;;;;;5127265;28;20054;-66
2023/02/07 12:10:25;;;;;;;11.93;6.60;;;;;;;;;;5093292;28;20191;-66
2023/02/07 12:13:03;;;;;;;10.73;6.20;;;;;;;;;;5092901;28;20042;-68
2023/02/07 12:15:29;;;;;;;11.30;6.20;;;;;;;;;;5093002;28;20051;-66
2023/02/07 12:18:02;;;;;;;9.67;6.00;;;;;;;;;;5093104;28;20050;-66
2023/02/07 12:20:46;;;;;;;12.57;6.80;;;;;;;;;;5110378;28;20159;-66
2023/02/07 12:23:21;;;;;;;10.87;6.07;;;;;;;;;;5109935;28;20040;-65
2023/02/07 12:25:50;;;;;;;11.17;6.00;;;;;;;;;;5093482;28;20043;-66
2023/02/07 12:28:24;;;;;;;10.70;5.90;;;;;;;;;;5092979;28;20133;-66
2023/02/07 12:30:52;;;;;;;10.50;5.83;;;;;;;;;;5082500;28;20039;-67
2023/02/07 12:33:30;;;;;;;8.83;6.00;;;;;;;;;;5081269;28;20561;-66
2023/02/07 12:36:18;;;;;;;8.43;5.17;;;;;;;;;;5089570;28;20107;-66
2023/02/07 12:38:51;;;;;;;11.17;5.73;;;;;;;;;;5097288;28;20051;-64
2023/02/07 12:41:23;;;;;;;11.57;5.57;;;;;;;;;;5112295;28;20481;-64
2023/02/07 12:43:58;;;;;;;13.97;6.03;;;;;;;;;;5080931;28;20027;-65
2023/02/07 12:46:45;;;;;;;9.20;6.17;;;;;;;;;;5080054;28;20032;-64
2023/02/07 12:49:28;;;;;;;12.77;6.53;;;;;;;;;;5115275;28;20043;-64
2023/02/07 12:52:00;;;;;;;10.70;5.73;;;;;;;;;;5097440;28;20036;-64
2023/02/07 12:54:46;;;;;;;11.80;5.97;;;;;;;;;;5080821;28;20476;-65
2023/02/07 12:57:30;;;;;;;16.37;5.40;;;;;;;;;;5086501;28;20510;-66
2023/02/07 12:59:59;;;;;;;11.80;5.10;;;;;;;;;;5079005;28;20029;-65
2023/02/07 13:02:43;;;;;;;11.33;5.63;;;;;;;;;;5089174;28;20035;-67
2023/02/07 13:05:28;;;;;;;9.10;5.47;;;;;;;;;;5090769;28;20174;-66
2023/02/07 13:08:03;;;;;;;11.80;5.33;;;;;;;;;;5087073;28;20033;-66
2023/02/07 13:10:40;;;;;;;7.93;4.80;;;;;;;;;;5057209;28;20154;-66
2023/02/07 13:13:06;;;;;;;7.47;4.70;;;;;;;;;;5063975;28;20043;-66
2023/02/07 13:15:43;;;;;;;8.60;5.30;;;;;;;;;;5062211;28;20044;-66
2023/02/07 13:18:12;;;;;;;9.40;5.47;;;;;;;;;;5074979;28;20044;-66
2023/02/07 13:20:38;;;;;;;7.87;5.37;;;;;;;;;;5058314;28;20032;-64
2023/02/07 13:23:10;;;;;;;13.13;5.50;;;;;;;;;;5075545;28;20054;-65
2023/02/07 13:25:37;;;;;;;8.90;5.40;;;;;;;;;;5092832;28;20375;-67
2023/02/07 13:28:25;;;;;;;9.50;4.60;;;;;;;;;;5087773;28;20032;-66
2023/02/07 13:30:52;;;;;;;11.33;5.10;;;;;;;;;;5110308;28;20167;-67
2023/02/07 13:33:23;;;;;;;11.43;5.00;;;;;;;;;;5107771;28;20047;-66
2023/02/07 13:35:49;;;;;;;7.50;4.60;;;;;;;;;;5094567;28;20038;-66
2023/02/07 13:38:18;;;;;;;9.03;5.17;;;;;;;;;;5094310;28;20037;-67
2023/02/07 13:40:44;;;;;;;11.00;5.03;;;;;;;;;;5076679;28;20594;-67
2023/02/07 13:43:22;;;;;;;9.10;5.53;;;;;;;;;;5074647;28;20060;-66
2023/02/07 13:45:48;;;;;;;9.70;5.30;;;;;;;;;;5059222;28;20473;-66
2023/02/07 13:48:13;;;;;;;12.17;5.20;;;;;;;;;;5058804;28;20028;-69
2023/02/07 13:50:58;;;;;;;11.43;5.50;;;;;;;;;;5058239;28;20032;-66
2023/02/07 13:53:33;;;;;;;10.13;5.30;;;;;;;;;;5091700;28;20097;-67
2023/02/07 13:56:01;;;;;;;11.77;5.20;;;;;;;;;;5092031;28;20120;-70
2023/02/07 14:01:22;;;;;;;8.90;5.00;;;;;;;;;;5074059;28;20390;-65
2023/02/07 14:04:20;;;;;;;11.15;5.18;;;;;;;;;;5093164;28;20036;-67
2023/02/07 14:06:45;;;;;;;15.07;5.03;;;;;;;;;;5086080;28;20040;-66
2023/02/07 14:09:14;;;;;;;22.97;5.70;;;;;;;;;;5058008;28;20039;-67
2023/02/07 14:11:54;;;;;;;12.40;5.60;;;;;;;;;;5074300;28;20517;-68
2023/02/07 14:14:25;;;;;;;15.18;6.00;;;;;;;;;;5125436;27;20540;-68
2023/02/07 14:16:52;;;;;;;15.75;5.97;;;;;;;;;;5127773;27;20056;-69
2023/02/07 14:19:37;;;;;;;9.67;5.43;;;;;;;;;;5093067;28;20051;-67
2023/02/07 14:22:21;;;;;;;12.03;5.80;;;;;;;;;;5093355;28;20031;-68
2023/02/07 14:25:06;;;;;;;9.97;5.50;;;;;;;;;;5087925;28;20432;-67
2023/02/07 14:27:39;;;;;;;11.30;4.87;;;;;;;;;;5076286;28;20032;-66
2023/02/07 14:30:08;;;;;;;7.80;4.47;;;;;;;;;;5092492;28;20089;-66
2023/02/07 14:32:39;;;;;;;8.13;4.93;;;;;;;;;;5091019;28;20054;-66
2023/02/07 14:35:05;;;;;;;;;;;;;;;;;;5111318;28;20122;-67
2023/02/07 14:37:37;;;;;;;11.60;4.83;;;;;;;;;;5112309;28;20018;-67
2023/02/07 14:40:07;;;;;;;9.67;5.17;;;;;;;;;;5078354;28;20126;-67
2023/02/07 14:42:32;;;;;;;10.88;5.68;;;;;;;;;;5095476;28;20035;-67
2023/02/07 14:44:58;;;;;;;7.97;4.77;;;;;;;;;;5095482;28;20035;-67
2023/02/07 14:47:26;;;;;;;8.60;5.17;;;;;;;;;;5095583;28;20031;-69
2023/02/07 14:49:54;;;;;;;8.23;5.27;;;;;;;;;;5095735;28;20036;-67